Mackinac Island, MI

4:04 PM EST on February 12, 2016 (GMT -0500)
Mackinac Island

Weather History for KMCD - April, 2014

Change the Weather History Date:

Wednesday, April 23, 2014

  Actual Average Record
Temperature  
Mean Temperature 37 °F -  
Max Temperature 46 °F 49 °F 71 °F (2001)
Min Temperature 28 °F 32 °F 26 °F (1986)
Degree Days  
Heating Degree Days 28    
Moisture  
Dew Point 24 °F    
Average Humidity 65    
Maximum Humidity 88    
Minimum Humidity 31    
Precipitation  
Precipitation 0.00 in - - ()
Sea Level Pressure  
Sea Level Pressure 30.10 in    
Wind  
Wind Speed 7 mph (NW)    
Max Wind Speed 17 mph    
Max Gust Speed 23 mph    
Visibility 10 miles    
Events      
Averages and records for this station are not official NWS values.
T = Trace of Precipitation, MM = Missing Value Source: NWS Daily Summary

Daily Weather History Graph

Daily Weather History Graph

Search for Another Location

Airport or City:

Trip Planner

Search our weather history database for the weather conditions in past years. The results will help you decide how hot, cold, wet, or windy it might be!

Date:

Astronomy

Apr. 23, 2014 Rise Set
Actual Time 6:38 AM EDT 8:35 PM EDT
Civil Twilight 6:06 AM EDT 9:08 PM EDT
Nautical Twilight 5:27 AM EDT 9:47 PM EDT
Astronomical Twilight 4:44 AM EDT 10:31 PM EDT
Moon 3:29 AM EDT (4/23) 2:25 PM EDT (4/23)
Length of Visible Light 15h 01m
Length of Day
13h 57m
Waning Crescent, 35% of the Moon is Illuminated
Apr 23
Waning Crescent
Apr 29
New
May 6
First Quarter
May 14
Full
May 21
Last Quarter

Hourly Weather History & Observations

Time (EDT) Temp. Windchill Dew Point Humidity Pressure Visibility Wind Dir Wind Speed Gust Speed Precip Events Conditions
12:16 AM 32.0 °F 24.8 °F 28.4 °F 87% 30.00 in 10.0 mi NW 8.1 mph - N/A   Clear
12:36 AM 32.0 °F 24.8 °F 27.9 °F 85% 30.00 in 10.0 mi NNW 8.1 mph - N/A   Clear
12:56 AM 32.0 °F 24.8 °F 27.5 °F 83% 30.01 in 10.0 mi NNW 8.1 mph - N/A   Clear
1:16 AM 31.1 °F 23.1 °F 27.7 °F 87% 30.01 in 10.0 mi NNW 9.2 mph - N/A   Clear
1:36 AM 30.9 °F 23.5 °F 27.3 °F 86% 30.01 in 10.0 mi NNW 8.1 mph - N/A   Clear
1:56 AM 30.9 °F 23.5 °F 27.1 °F 86% 30.01 in 10.0 mi NNW 8.1 mph - N/A   Clear
2:15 AM 31.1 °F 23.7 °F 27.1 °F 85% 30.02 in 10.0 mi NW 8.1 mph - N/A   Clear
2:36 AM 30.2 °F 22.6 °F 27.0 °F 88% 30.03 in 10.0 mi NW 8.1 mph - N/A   Clear
2:56 AM 30.2 °F 21.9 °F 27.0 °F 88% 30.04 in 10.0 mi NW 9.2 mph - N/A   Clear
3:15 AM 30.0 °F 22.4 °F 27.0 °F 88% 30.04 in 10.0 mi NW 8.1 mph - N/A   Clear
3:36 AM 29.8 °F 20.9 °F 26.6 °F 88% 30.05 in 10.0 mi NNW 10.4 mph - N/A   Clear
3:56 AM 30.0 °F 21.7 °F 26.4 °F 86% 30.05 in 10.0 mi NNW 9.2 mph - N/A   Clear
4:16 AM 30.0 °F 21.1 °F 26.4 °F 86% 30.06 in 10.0 mi NNW 10.4 mph - N/A   Clear
4:36 AM 30.2 °F 21.9 °F 25.7 °F 83% 30.06 in 10.0 mi NNW 9.2 mph - N/A   Clear
4:56 AM 29.8 °F 22.2 °F 25.5 °F 84% 30.06 in 10.0 mi NNW 8.1 mph - N/A   Clear
5:16 AM 29.3 °F 22.3 °F 25.5 °F 86% 30.07 in 10.0 mi NNW 6.9 mph - N/A   Clear
5:36 AM 29.3 °F 20.8 °F 25.0 °F 84% 30.07 in 10.0 mi North 9.2 mph - N/A   Clear
5:55 AM 29.3 °F 21.5 °F 24.1 °F 81% 30.07 in 10.0 mi North 8.1 mph - N/A   Clear
6:16 AM 28.8 °F 20.9 °F 24.1 °F 83% 30.07 in 10.0 mi North 8.1 mph - N/A   Clear
6:36 AM 28.4 °F 20.4 °F 23.9 °F 83% 30.08 in 10.0 mi North 8.1 mph - N/A   Clear
6:55 AM 28.2 °F 21.0 °F 23.9 °F 84% 30.08 in 10.0 mi North 6.9 mph - N/A   Clear
7:16 AM 28.9 °F 21.9 °F 23.7 °F 81% 30.09 in 10.0 mi North 6.9 mph - N/A   Clear
7:36 AM 29.5 °F 22.5 °F 23.9 °F 80% 30.10 in 10.0 mi North 6.9 mph - N/A   Clear
7:56 AM 30.9 °F 25.2 °F 23.4 °F 74% 30.10 in 10.0 mi North 5.8 mph - N/A   Clear
8:16 AM 32.0 °F 27.5 °F 23.0 °F 69% 30.11 in 10.0 mi North 4.6 mph - N/A   Clear
8:36 AM 32.4 °F 24.6 °F 22.3 °F 66% 30.12 in 10.0 mi North 9.2 mph - N/A   Clear
8:56 AM 33.3 °F 30.2 °F 22.6 °F 65% 30.13 in 10.0 mi NNW 3.5 mph - N/A   Clear
9:16 AM 33.3 °F 28.9 °F 21.4 °F 62% 30.13 in 10.0 mi NW 4.6 mph - N/A   Clear
9:36 AM 33.8 °F 27.7 °F 19.4 °F 56% 30.14 in 10.0 mi NW 6.9 mph - N/A   Clear
9:56 AM 36.1 °F 32.3 °F 18.9 °F 50% 30.14 in 10.0 mi North 4.6 mph - N/A   Clear
10:16 AM 37.6 °F 31.6 °F 16.3 °F 42% 30.14 in 10.0 mi North 8.1 mph - N/A   Clear
10:36 AM 37.0 °F 32.4 °F 17.8 °F 46% 30.14 in 10.0 mi NNW 5.8 mph - N/A   Clear
10:56 AM 37.9 °F 35.5 °F 16.3 °F 42% 30.14 in 10.0 mi West 3.5 mph - N/A   Clear
11:16 AM 36.7 °F 32.9 °F 22.1 °F 56% 30.14 in 10.0 mi West 4.6 mph - N/A   Clear
11:36 AM 36.7 °F 32.9 °F 21.7 °F 55% 30.14 in 10.0 mi West 4.6 mph - N/A   Clear
11:56 AM 36.7 °F 32.9 °F 21.6 °F 54% 30.14 in 10.0 mi WSW 4.6 mph - N/A   Clear
12:16 PM 36.5 °F 32.7 °F 23.5 °F 59% 30.14 in 10.0 mi West 4.6 mph - N/A   Clear
12:36 PM 37.9 °F 35.5 °F 24.3 °F 58% 30.14 in 10.0 mi West 3.5 mph - N/A   Clear
1:16 PM 41.5 °F 39.6 °F 21.7 °F 45% 30.14 in 10.0 mi NNW 3.5 mph - N/A   Clear
1:36 PM 45.1 °F 37.9 °F 18.3 °F 34% 30.13 in 10.0 mi North 17.3 mph 23.0 mph N/A   Clear
1:56 PM 46.0 °F 40.2 °F 18.3 °F 33% 30.13 in 10.0 mi North 12.7 mph 19.6 mph N/A   Clear
2:17 PM 46.6 °F - 17.8 °F 32% 30.13 in 10.0 mi North 13.8 mph 19.6 mph N/A   Clear
2:36 PM 46.8 °F - 17.4 °F 31% 30.13 in 10.0 mi North 12.7 mph - N/A   Clear
2:56 PM 46.4 °F 41.5 °F 16.9 °F 31% 30.13 in 10.0 mi North 10.4 mph 19.6 mph N/A   Clear
3:17 PM 42.8 °F 39.3 °F 21.2 °F 42% 30.14 in 10.0 mi West 5.8 mph - N/A   Clear
3:36 PM 41.0 °F 37.1 °F 21.7 °F 46% 30.14 in 10.0 mi WSW 5.8 mph - N/A   Clear
3:56 PM 41.2 °F 35.5 °F 23.4 °F 49% 30.14 in 10.0 mi WSW 9.2 mph - N/A   Clear
4:17 PM 41.0 °F 39.0 °F 25.2 °F 53% 30.14 in 10.0 mi SW 3.5 mph - N/A   Clear
4:36 PM 40.3 °F 38.2 °F 25.5 °F 56% 30.13 in 10.0 mi West 3.5 mph - N/A   Clear
4:56 PM 42.6 °F - 24.3 °F 48% 30.12 in 10.0 mi Calm Calm - N/A   Clear
5:16 PM 42.1 °F 39.2 °F 26.4 °F 54% 30.12 in 10.0 mi WSW 4.6 mph - N/A   Clear
5:36 PM 43.2 °F 39.0 °F 24.1 °F 47% 30.11 in 10.0 mi West 6.9 mph - N/A   Clear
5:57 PM 43.2 °F 41.5 °F 24.6 °F 48% 30.11 in 10.0 mi West 3.5 mph - N/A   Clear
6:16 PM 42.8 °F 38.0 °F 24.4 °F 48% 30.11 in 10.0 mi West 8.1 mph - N/A   Clear
6:36 PM 42.1 °F 37.7 °F 25.5 °F 52% 30.11 in 10.0 mi West 6.9 mph - N/A   Clear
6:57 PM 38.5 °F 36.1 °F 27.3 °F 64% 30.11 in 10.0 mi SW 3.5 mph - N/A   Clear
7:16 PM 38.3 °F 33.9 °F 26.8 °F 63% 30.11 in 10.0 mi West 5.8 mph - N/A   Clear
7:36 PM 38.7 °F 32.9 °F 23.7 °F 55% 30.11 in 10.0 mi West 8.1 mph - N/A   Clear
7:57 PM 37.2 °F 34.7 °F 25.0 °F 61% 30.12 in 10.0 mi WSW 3.5 mph - N/A   Clear
8:16 PM 35.8 °F 31.9 °F 25.5 °F 66% 30.12 in 10.0 mi SW 4.6 mph - N/A   Clear
8:36 PM 33.6 °F 27.5 °F 26.2 °F 74% 30.12 in 10.0 mi West 6.9 mph - N/A   Clear
8:57 PM 34.7 °F 28.1 °F 23.7 °F 64% 30.12 in 10.0 mi WNW 8.1 mph - N/A   Clear
9:16 PM 33.8 °F 29.6 °F 24.1 °F 68% 30.12 in 10.0 mi WNW 4.6 mph - N/A   Clear
9:36 PM 33.8 °F 28.6 °F 23.0 °F 65% 30.13 in 10.0 mi WNW 5.8 mph - N/A   Clear
9:57 PM 34.5 °F 29.4 °F 21.6 °F 59% 30.14 in 10.0 mi WNW 5.8 mph - N/A   Clear
10:16 PM 34.5 °F 28.6 °F 21.6 °F 59% 30.14 in 10.0 mi WNW 6.9 mph - N/A   Clear
10:36 PM 34.2 °F 31.2 °F 22.1 °F 61% 30.14 in 10.0 mi West 3.5 mph - N/A   Clear
10:57 PM 32.2 °F 26.7 °F 23.4 °F 70% 30.14 in 10.0 mi West 5.8 mph - N/A   Clear
11:16 PM 32.0 °F 27.5 °F 23.4 °F 70% 30.13 in 10.0 mi WNW 4.6 mph - N/A   Clear
11:36 PM 31.3 °F 25.6 °F 23.5 °F 73% 30.13 in 10.0 mi NW 5.8 mph - N/A   Clear
11:56 PM 30.6 °F 23.8 °F 23.5 °F 75% 30.12 in 10.0 mi NNW 6.9 mph - N/A   Clear